Time;durP1;ratioP1;P1;durP2;ratioP2;P2;SDS_P1;SDS_P2;PMS_P1;PMS_P2;Temp;Humidity;BMP_temperature;BMP_pressure;BME280_temperature;BME280_humidity;BME280_pressure;Samples;Min_cycle;Max_cycle;Signal;HPM_P1;HPM_P2
2020/12/19 00:00:18;;;;;;;23.50;17.20;;;;;;;13.60;70.15;101710.13;5121592;27;20438;-49
2020/12/19 00:02:43;;;;;;;27.25;14.27;;;;;;;13.61;70.55;101706.38;5131296;27;20130;-45
2020/12/19 00:05:09;;;;;;;15.48;13.85;;;;;;;13.58;69.98;101707.66;5130783;27;20465;-47
2020/12/19 00:07:36;;;;;;;21.10;13.98;;;;;;;13.50;70.18;101701.81;5132035;27;20411;-50
2020/12/19 00:10:03;;;;;;;17.88;12.95;;;;;;;13.56;70.09;101701.69;5131024;27;20119;-52
2020/12/19 00:12:28;;;;;;;13.48;11.32;;;;;;;13.61;70.02;101699.13;5131944;27;20041;-51
2020/12/19 00:14:54;;;;;;;21.10;13.60;;;;;;;13.50;69.98;101705.34;5131945;27;20031;-45
2020/12/19 00:17:19;;;;;;;17.05;13.27;;;;;;;13.50;70.12;101686.50;5131223;27;20416;-46
2020/12/19 00:19:45;;;;;;;14.73;13.20;;;;;;;13.51;70.10;101692.69;5124434;27;20158;-50
2020/12/19 00:22:10;;;;;;;17.10;11.55;;;;;;;13.45;70.67;101685.53;5131259;27;20039;-48
2020/12/19 00:24:37;;;;;;;14.65;13.20;;;;;;;13.41;70.67;101679.78;5131930;27;20078;-50
2020/12/19 00:27:02;;;;;;;20.42;13.57;;;;;;;13.39;70.77;101673.81;5131055;27;20031;-50
2020/12/19 00:29:28;;;;;;;20.08;13.18;;;;;;;13.34;70.58;101668.31;5131679;27;20088;-47
2020/12/19 00:31:53;;;;;;;14.85;10.48;;;;;;;13.36;70.31;101667.06;5131803;27;20101;-49
2020/12/19 00:34:19;;;;;;;16.75;11.32;;;;;;;13.46;70.01;101658.34;5122836;27;20119;-44
2020/12/19 00:36:45;;;;;;;21.08;13.40;;;;;;;13.47;69.73;101660.00;5131306;27;20031;-46
2020/12/19 00:39:10;;;;;;;19.65;13.02;;;;;;;13.41;70.35;101666.31;5121284;27;20085;-47
2020/12/19 00:41:36;;;;;;;22.52;14.52;;;;;;;13.40;70.20;101654.75;5111121;28;20036;-48
2020/12/19 00:44:02;;;;;;;21.58;11.23;;;;;;;13.43;70.92;101658.84;5111220;28;20035;-50
2020/12/19 00:46:27;;;;;;;17.77;10.07;;;;;;;13.55;69.93;101656.97;5131576;27;20031;-48
2020/12/19 00:48:53;;;;;;;14.55;10.27;;;;;;;13.55;69.92;101656.97;5124724;27;20478;-45
2020/12/19 00:51:23;;;;;;;12.88;10.57;;;;;;;13.55;69.86;101653.44;5130091;27;20032;-50
2020/12/19 00:53:49;;;;;;;15.32;11.48;;;;;;;13.60;69.66;101664.31;5131055;27;20043;-46
2020/12/19 00:56:23;;;;;;;27.13;13.95;;;;;;;13.48;69.75;101653.56;5129421;27;20530;-49
2020/12/19 00:58:50;;;;;;;24.70;14.50;;;;;;;13.41;70.42;101658.25;5131512;27;20050;-44
2020/12/19 01:01:17;;;;;;;11.55;9.90;;;;;;;13.43;70.27;101664.25;5130724;27;20035;-45
2020/12/19 01:03:43;;;;;;;17.40;12.25;;;;;;;13.45;70.11;101667.50;5128674;27;20082;-47
2020/12/19 01:06:14;;;;;;;18.58;13.10;;;;;;;13.41;70.32;101660.94;5120319;28;20125;-46
2020/12/19 01:08:39;;;;;;;12.68;8.57;;;;;;;13.41;69.99;101658.25;5131425;27;20399;-48
2020/12/19 01:11:05;;;;;;;18.33;8.63;;;;;;;13.45;70.08;101655.91;5130289;27;20133;-46
2020/12/19 01:13:30;;;;;;;10.68;7.22;;;;;;;13.42;69.65;101651.81;5131440;28;20027;-46
2020/12/19 01:15:56;;;;;;;10.80;8.20;;;;;;;13.35;70.64;101657.31;5131010;27;20045;-49
2020/12/19 01:18:21;;;;;;;7.78;6.32;;;;;;;13.38;70.49;101666.81;5132412;27;20391;-46
2020/12/19 01:20:47;;;;;;;8.27;7.03;;;;;;;13.34;70.66;101665.63;5130532;27;20499;-49
2020/12/19 01:23:13;;;;;;;7.70;6.75;;;;;;;13.29;71.16;101665.47;5132991;27;20142;-46
2020/12/19 01:25:38;;;;;;;15.85;7.82;;;;;;;13.32;70.43;101671.25;5129261;27;20035;-45
2020/12/19 01:28:04;;;;;;;9.35;8.23;;;;;;;13.27;71.18;101676.53;5124976;27;20035;-44
2020/12/19 01:30:29;;;;;;;11.55;7.00;;;;;;;13.22;70.34;101669.13;5135072;27;20054;-46
2020/12/19 01:32:55;;;;;;;14.30;7.18;;;;;;;13.18;71.33;101677.91;5134688;27;20117;-47
2020/12/19 01:35:22;;;;;;;31.00;8.50;;;;;;;13.18;71.21;101672.50;5134149;27;20435;-49
2020/12/19 01:37:47;;;;;;;20.35;8.40;;;;;;;13.27;70.63;101673.81;5134828;27;20030;-48
2020/12/19 01:40:13;;;;;;;19.23;10.68;;;;;;;13.20;70.15;101687.41;5134103;27;20452;-44
2020/12/19 01:42:38;;;;;;;13.32;10.13;;;;;;;13.18;70.09;101688.66;5134923;27;20027;-46
2020/12/19 01:45:04;;;;;;;14.57;8.63;;;;;;;13.14;70.38;101693.69;5134295;27;20433;-44
2020/12/19 01:47:33;;;;;;;12.18;9.40;;;;;;;13.03;70.73;101694.53;5134812;27;20019;-46
2020/12/19 01:50:00;;;;;;;17.20;12.30;;;;;;;13.00;70.76;101689.59;5126817;27;20050;-44
2020/12/19 01:52:29;;;;;;;23.38;11.02;;;;;;;13.07;70.38;101692.19;5134461;27;20031;-44
2020/12/19 01:54:57;;;;;;;19.15;12.88;;;;;;;12.96;70.87;101697.31;5134752;27;20062;-45
2020/12/19 01:57:26;;;;;;;17.83;12.50;;;;;;;12.88;71.06;101707.59;5133556;27;20041;-44
2020/12/19 01:59:52;;;;;;;18.58;11.93;;;;;;;12.95;70.55;101701.06;5127566;27;20035;-47
2020/12/19 02:02:22;;;;;;;18.60;12.82;;;;;;;13.06;69.88;101707.53;5127133;27;20039;-48
2020/12/19 02:04:48;;;;;;;14.57;11.47;;;;;;;12.92;70.87;101703.38;5133257;27;20050;-44
2020/12/19 02:07:13;;;;;;;19.67;11.02;;;;;;;12.98;69.99;101710.56;5133439;27;20647;-46
2020/12/19 02:09:40;;;;;;;16.00;11.95;;;;;;;12.98;70.34;101716.75;5134501;27;20385;-44
2020/12/19 02:12:08;;;;;;;12.70;11.40;;;;;;;12.93;69.97;101708.53;5124423;27;20053;-48
2020/12/19 02:14:35;;;;;;;9.23;7.90;;;;;;;12.92;70.74;101701.53;5113740;28;20035;-46
2020/12/19 02:17:03;;;;;;;24.40;10.38;;;;;;;12.95;70.36;101709.13;5113322;28;20522;-48
2020/12/19 02:19:30;;;;;;;10.68;8.80;;;;;;;12.95;70.20;101714.50;5111870;27;20027;-45
2020/12/19 02:21:57;;;;;;;13.75;10.82;;;;;;;12.99;69.93;101713.00;5134131;27;20035;-45
2020/12/19 02:24:23;;;;;;;15.07;10.52;;;;;;;12.96;69.99;101709.97;5132775;27;20069;-47
2020/12/19 02:26:51;;;;;;;34.33;13.07;;;;;;;12.91;70.58;101704.47;5133857;27;20079;-44
2020/12/19 02:29:17;;;;;;;15.40;8.77;;;;;;;12.78;70.54;101706.31;5132809;27;20130;-45
2020/12/19 02:31:43;;;;;;;14.30;9.38;;;;;;;12.73;71.19;101695.41;5133926;27;20035;-45
2020/12/19 02:34:09;;;;;;;11.60;8.63;;;;;;;12.75;70.92;101696.00;5133198;27;20095;-44
2020/12/19 02:36:35;;;;;;;11.95;7.25;;;;;;;12.76;70.72;101703.03;5134131;27;20035;-48
2020/12/19 02:39:01;;;;;;;12.70;7.15;;;;;;;12.76;71.05;101703.03;5124909;27;20032;-49
2020/12/19 02:41:28;;;;;;;7.45;6.43;;;;;;;12.76;71.47;101703.03;5118093;27;20031;-46
2020/12/19 02:43:55;;;;;;;15.90;6.75;;;;;;;12.73;71.38;101692.72;5124555;27;20472;-44
2020/12/19 02:46:21;;;;;;;15.88;7.95;;;;;;;12.85;70.69;101696.25;5131567;27;20588;-46
2020/12/19 02:48:47;;;;;;;14.50;7.53;;;;;;;12.83;70.76;101692.97;5127745;27;20050;-45
2020/12/19 02:51:13;;;;;;;17.52;8.70;;;;;;;12.67;70.77;101693.63;5131512;27;20069;-44
2020/12/19 02:53:38;;;;;;;16.23;8.15;;;;;;;12.74;70.96;101688.16;5133474;27;20357;-46
2020/12/19 02:56:04;;;;;;;15.45;7.30;;;;;;;12.72;70.86;101679.50;5116246;27;20047;-45
2020/12/19 02:58:30;;;;;;;17.83;7.88;;;;;;;12.79;69.98;101680.19;5133522;27;20043;-45
2020/12/19 03:00:55;;;;;;;11.45;7.57;;;;;;;12.78;69.60;101682.09;5133443;27;20038;-45
2020/12/19 03:03:21;;;;;;;9.15;6.93;;;;;;;12.77;69.67;101677.75;5131270;27;20043;-45
2020/12/19 03:05:46;;;;;;;15.57;9.82;;;;;;;12.58;70.64;101670.78;5133327;27;20027;-46
2020/12/19 03:08:11;;;;;;;21.35;8.48;;;;;;;12.53;70.83;101676.84;5132306;27;20043;-44
2020/12/19 03:10:37;;;;;;;12.60;8.82;;;;;;;12.57;70.43;101666.44;5133072;27;20108;-43
2020/12/19 03:13:03;;;;;;;11.00;7.28;;;;;;;12.58;70.30;101668.09;5132182;27;20050;-45
2020/12/19 03:15:28;;;;;;;21.13;8.40;;;;;;;12.49;70.93;101665.72;5133274;27;20031;-48
2020/12/19 03:17:54;;;;;;;16.08;9.60;;;;;;;12.49;71.48;101663.03;5132982;27;20434;-49
2020/12/19 03:20:19;;;;;;;12.98;10.18;;;;;;;12.59;70.80;101664.38;5124605;27;20023;-44
2020/12/19 03:22:45;;;;;;;17.88;10.57;;;;;;;12.61;70.96;101663.09;5132559;27;20039;-46
2020/12/19 03:25:10;;;;;;;7.78;6.97;;;;;;;12.55;70.64;101658.63;5131807;27;20110;-45
2020/12/19 03:27:36;;;;;;;12.73;10.18;;;;;;;12.51;70.74;101664.69;5132745;27;20122;-49
2020/12/19 03:30:03;;;;;;;10.40;7.78;;;;;;;12.54;70.58;101662.38;5132096;27;20034;-46
2020/12/19 03:32:29;;;;;;;15.90;7.85;;;;;;;12.46;70.94;101658.16;5133074;27;20054;-46
2020/12/19 03:34:54;;;;;;;12.98;10.90;;;;;;;12.49;70.68;101659.53;5125817;27;20031;-45
2020/12/19 03:37:20;;;;;;;15.48;9.18;;;;;;;12.43;70.60;101666.66;5131643;27;20143;-44
2020/12/19 03:39:45;;;;;;;9.73;7.22;;;;;;;12.45;69.65;101672.63;5132355;27;20452;-46
2020/12/19 03:42:11;;;;;;;10.35;6.00;;;;;;;12.47;69.51;101673.22;5131531;27;20031;-44
2020/12/19 03:44:36;;;;;;;8.73;6.80;;;;;;;12.41;69.68;101667.94;5118989;27;20032;-45
2020/12/19 03:47:02;;;;;;;9.57;6.65;;;;;;;12.42;69.90;101674.97;5111086;28;20039;-48
2020/12/19 03:49:27;;;;;;;9.00;5.53;;;;;;;12.47;69.70;101665.16;5115779;27;20098;-44
2020/12/19 03:51:52;;;;;;;9.07;7.05;;;;;;;12.40;70.35;101656.34;5132063;27;20479;-44
2020/12/19 03:54:18;;;;;;;21.45;9.93;;;;;;;12.56;70.24;101660.25;5131018;27;20047;-45
2020/12/19 03:56:43;;;;;;;11.32;8.18;;;;;;;12.48;69.97;101658.72;5132309;27;20031;-46
2020/12/19 03:59:09;;;;;;;12.25;8.93;;;;;;;12.33;70.94;101657.50;5131781;27;20035;-45
2020/12/19 04:01:34;;;;;;;17.92;13.32;;;;;;;12.35;71.28;101656.22;5122514;27;20114;-47
2020/12/19 04:04:00;;;;;;;16.63;9.38;;;;;;;12.51;70.41;101662.81;5131899;27;20035;-45
2020/12/19 04:06:25;;;;;;;14.38;12.50;;;;;;;12.42;71.08;101658.81;5131826;27;20439;-45
2020/12/19 04:08:51;;;;;;;11.88;7.63;;;;;;;12.50;70.67;101655.81;5132463;27;20501;-44
2020/12/19 04:11:16;;;;;;;7.30;6.57;;;;;;;12.52;70.67;101653.72;5131221;27;20042;-46
2020/12/19 04:13:42;;;;;;;9.73;6.00;;;;;;;12.55;70.71;101647.03;5132012;27;20043;-44
2020/12/19 04:16:07;;;;;;;12.13;5.97;;;;;;;12.46;71.05;101651.94;5131076;27;20027;-46
2020/12/19 04:18:32;;;;;;;7.93;4.50;;;;;;;12.36;71.64;101652.50;5127769;27;20031;-45
2020/12/19 04:20:58;;;;;;;6.43;5.00;;;;;;;12.45;71.50;101659.19;5126950;27;20037;-45
2020/12/19 04:23:23;;;;;;;7.22;4.47;;;;;;;12.44;71.08;101662.09;5131426;27;20107;-45
2020/12/19 04:25:49;;;;;;;6.47;5.55;;;;;;;12.42;71.40;101662.31;5131607;27;20031;-47
2020/12/19 04:28:14;;;;;;;7.82;5.82;;;;;;;12.39;71.11;101660.09;5131024;27;20039;-47
2020/12/19 04:30:40;;;;;;;7.35;5.10;;;;;;;12.42;70.37;101658.81;5131745;27;20449;-47
2020/12/19 04:33:05;;;;;;;10.00;8.38;;;;;;;12.28;71.16;101659.00;5130879;27;20408;-46
2020/12/19 04:35:31;;;;;;;14.25;7.60;;;;;;;12.33;70.89;101657.50;5131471;27;20023;-52
2020/12/19 04:37:56;;;;;;;8.20;7.40;;;;;;;12.36;70.25;101655.19;5131002;27;20485;-45
2020/12/19 04:40:22;;;;;;;10.10;6.43;;;;;;;12.39;70.57;101652.00;5130901;27;20039;-48
2020/12/19 04:42:48;;;;;;;11.77;7.50;;;;;;;12.36;70.05;101640.91;5130151;27;20070;-50
2020/12/19 04:45:13;;;;;;;10.90;6.85;;;;;;;12.29;70.74;101639.13;5122998;27;20039;-48
2020/12/19 04:47:39;;;;;;;8.43;6.97;;;;;;;12.27;70.23;101641.25;5124875;27;20085;-46
2020/12/19 04:50:05;;;;;;;11.88;6.35;;;;;;;12.27;70.43;101643.09;5121897;27;20023;-49
2020/12/19 04:52:30;;;;;;;11.65;6.25;;;;;;;12.20;70.16;101645.06;5123542;27;20393;-49
2020/12/19 04:54:56;;;;;;;7.85;6.57;;;;;;;12.09;70.88;101639.41;5129550;27;20122;-44
2020/12/19 04:57:22;;;;;;;12.07;5.82;;;;;;;12.23;70.92;101640.03;5129447;27;20054;-47
2020/12/19 04:59:48;;;;;;;13.02;5.78;;;;;;;12.24;70.28;101635.50;5131160;27;20027;-47
2020/12/19 05:02:14;;;;;;;9.90;5.07;;;;;;;12.19;71.00;101648.81;5130146;27;20713;-48
2020/12/19 05:04:41;;;;;;;7.85;4.13;;;;;;;12.19;70.68;101646.13;5130757;27;20044;-44
2020/12/19 05:07:10;;;;;;;8.23;4.35;;;;;;;12.21;70.16;101644.00;5130013;27;20027;-47
2020/12/19 05:09:40;;;;;;;7.32;4.47;;;;;;;12.29;69.97;101639.13;5131188;27;20031;-46
2020/12/19 05:12:08;;;;;;;6.57;4.63;;;;;;;12.30;69.79;101646.13;5130283;27;20083;-44
2020/12/19 05:14:34;;;;;;;8.55;4.32;;;;;;;12.13;70.36;101649.69;5129829;28;20031;-47
2020/12/19 05:17:00;;;;;;;9.85;5.65;;;;;;;11.99;71.46;101643.69;5130795;27;20102;-45
2020/12/19 05:19:29;;;;;;;15.35;6.00;;;;;;;12.02;71.29;101646.72;5122687;28;20035;-45
2020/12/19 05:21:56;;;;;;;10.95;5.63;;;;;;;12.10;71.23;101651.81;5130839;27;20039;-45
2020/12/19 05:24:30;;;;;;;7.32;4.75;;;;;;;12.14;71.21;101644.09;5130358;27;20879;-44
2020/12/19 05:26:56;;;;;;;12.73;5.60;;;;;;;12.20;70.33;101645.06;5130813;27;20085;-46
2020/12/19 05:29:21;;;;;;;5.85;4.40;;;;;;;12.21;70.59;101642.13;5130234;27;20100;-45
2020/12/19 05:31:56;;;;;;;6.45;3.60;;;;;;;12.19;70.60;101640.75;5131052;28;20410;-45
2020/12/19 05:34:22;;;;;;;14.00;4.10;;;;;;;12.17;70.96;101640.16;5129835;27;20043;-45
2020/12/19 05:36:50;;;;;;;16.42;4.70;;;;;;;12.14;71.02;101638.72;5120212;27;20065;-48
2020/12/19 05:39:15;;;;;;;8.02;4.82;;;;;;;12.11;71.07;101625.72;5130205;27;20035;-49
2020/12/19 05:41:42;;;;;;;10.35;5.38;;;;;;;12.11;70.64;101633.78;5131038;28;20045;-47
2020/12/19 05:44:07;;;;;;;9.77;3.55;;;;;;;12.10;70.97;101630.28;5130155;27;20039;-44
2020/12/19 05:46:41;;;;;;;13.00;6.22;;;;;;;12.04;71.12;101631.22;5130915;27;20023;-44
2020/12/19 05:49:09;;;;;;;4.53;4.20;;;;;;;12.16;71.13;101633.94;5122741;27;20481;-45
2020/12/19 05:51:36;;;;;;;9.70;4.18;;;;;;;12.22;70.59;101632.19;5125266;27;20032;-48
2020/12/19 05:54:12;;;;;;;3.13;2.65;;;;;;;12.03;71.23;101634.13;5126998;28;20169;-48
2020/12/19 05:56:39;;;;;;;3.63;2.83;;;;;;;12.01;71.66;101634.34;5131051;27;20055;-44
2020/12/19 05:59:09;;;;;;;7.57;4.20;;;;;;;12.05;71.28;101632.84;5130167;27;20388;-50
2020/12/19 06:01:37;;;;;;;5.07;4.00;;;;;;;12.16;71.14;101641.19;5131043;27;20122;-50
2020/12/19 06:04:03;;;;;;;10.18;4.20;;;;;;;12.23;70.59;101639.22;5131615;27;20039;-46
2020/12/19 06:06:32;;;;;;;12.65;8.20;;;;;;;12.19;70.46;101643.44;5132522;27;20034;-48
2020/12/19 06:08:59;;;;;;;10.27;6.82;;;;;;;12.17;69.73;101646.34;5126508;27;20071;-45
2020/12/19 06:11:28;;;;;;;7.20;6.05;;;;;;;11.96;70.71;101639.59;5113342;28;20135;-52
2020/12/19 06:13:57;;;;;;;7.82;7.05;;;;;;;11.85;70.86;101645.69;5113643;28;20046;-47
2020/12/19 06:16:23;;;;;;;11.38;6.18;;;;;;;11.80;71.06;101640.16;5132752;27;20105;-45
2020/12/19 06:18:51;;;;;;;8.80;6.20;;;;;;;11.84;71.12;101644.06;5127570;27;20822;-46
2020/12/19 06:21:17;;;;;;;10.18;7.22;;;;;;;11.77;71.55;101646.00;5113464;28;20625;-48
2020/12/19 06:23:43;;;;;;;9.25;4.82;;;;;;;11.86;71.06;101650.81;5121455;27;20039;-46
2020/12/19 06:26:09;;;;;;;8.85;5.35;;;;;;;12.00;70.86;101648.81;5126542;27;20031;-47
2020/12/19 06:28:41;;;;;;;4.97;3.30;;;;;;;12.00;70.83;101650.72;5125441;27;20077;-47
2020/12/19 06:31:07;;;;;;;6.30;3.53;;;;;;;12.02;71.29;101653.97;5124925;27;20157;-45
2020/12/19 06:33:37;;;;;;;9.02;3.03;;;;;;;12.08;70.65;101651.22;5133918;27;20043;-48
2020/12/19 06:36:17;;;;;;;7.32;3.42;;;;;;;11.96;71.47;101653.03;5125758;27;20038;-46
2020/12/19 06:38:58;;;;;;;8.07;3.13;;;;;;;11.91;71.40;101659.06;5126839;27;20039;-45
2020/12/19 06:41:52;;;;;;;4.75;3.17;;;;;;;12.09;71.27;101654.72;5132414;27;20035;-47
2020/12/19 06:44:27;;;;;;;11.27;3.90;;;;;;;12.25;71.10;101659.47;5133138;27;20047;-47
2020/12/19 06:46:54;;;;;;;11.13;7.63;;;;;;;12.18;70.64;101660.59;5133436;27;20442;-47
2020/12/19 06:49:22;;;;;;;10.95;8.23;;;;;;;12.05;71.03;101664.28;5125282;27;20123;-47
2020/12/19 06:52:13;;;;;;;10.95;6.90;;;;;;;12.06;71.10;101666.75;5133167;27;20037;-45
2020/12/19 06:54:38;;;;;;;10.98;4.57;;;;;;;12.17;71.13;101667.03;5121066;27;20527;-49
2020/12/19 06:57:06;;;;;;;11.73;6.03;;;;;;;12.17;71.29;101673.22;5132317;27;20119;-47
2020/12/19 06:59:34;;;;;;;14.23;5.38;;;;;;;12.13;71.00;101679.28;5127709;27;20107;-48
2020/12/19 07:02:20;;;;;;;26.27;22.25;;;;;;;12.05;71.11;101675.84;5129376;27;20028;-45
2020/12/19 07:04:46;;;;;;;45.13;29.85;;;;;;;11.98;70.61;101685.06;5122977;27;20163;-47
2020/12/19 07:07:14;;;;;;;33.97;27.73;;;;;;;11.85;71.30;101691.34;5132527;27;20035;-46
2020/12/19 07:09:40;;;;;;;34.13;23.77;;;;;;;11.84;71.13;101700.47;5131607;27;20457;-45
2020/12/19 07:12:28;;;;;;;67.30;36.28;;;;;;;11.90;71.87;101703.13;5132089;27;20157;-44
2020/12/19 07:14:54;;;;;;;30.40;18.63;;;;;;;11.91;71.27;101694.00;5132389;27;20484;-45
2020/12/19 07:17:19;;;;;;;18.30;13.80;;;;;;;11.89;70.96;101701.44;5132254;27;20040;-44
2020/12/19 07:19:55;;;;;;;19.98;14.85;;;;;;;11.84;71.19;101706.66;5125454;27;20476;-45
2020/12/19 07:22:24;;;;;;;33.15;14.93;;;;;;;11.72;71.83;101709.28;5131750;27;20469;-45
2020/12/19 07:24:50;;;;;;;21.45;16.25;;;;;;;11.84;71.62;101717.41;5132864;27;20035;-45
2020/12/19 07:27:16;;;;;;;25.27;15.10;;;;;;;12.00;71.43;101716.03;5132245;27;20421;-48
2020/12/19 07:29:41;;;;;;;12.93;11.18;;;;;;;11.96;71.40;101720.22;5165821;27;20023;-45
2020/12/19 07:32:07;;;;;;;15.88;11.55;;;;;;;11.90;71.66;101723.75;5126572;27;20112;-47
2020/12/19 07:34:32;;;;;;;23.30;13.25;;;;;;;11.80;72.16;101723.44;5132016;27;20109;-47
2020/12/19 07:36:58;;;;;;;45.00;35.08;;;;;;;11.82;71.79;101726.75;5132306;27;20110;-46
2020/12/19 07:39:24;;;;;;;24.83;13.25;;;;;;;11.90;71.50;101731.81;5131658;27;20079;-46
2020/12/19 07:42:09;;;;;;;17.27;12.60;;;;;;;11.85;71.31;101726.28;5132227;27;20553;-46
2020/12/19 07:44:36;;;;;;;29.48;13.73;;;;;;;11.84;72.04;101730.84;5132083;27;20039;-46
2020/12/19 07:47:09;;;;;;;13.52;8.88;;;;;;;11.80;71.91;101734.19;5131563;27;20031;-47
2020/12/19 07:49:46;;;;;;;18.00;9.13;;;;;;;11.73;72.24;101742.34;5127006;27;20054;-47
2020/12/19 07:52:23;;;;;;;12.98;10.27;;;;;;;11.75;72.28;101740.25;5131168;27;20039;-47
2020/12/19 07:55:03;;;;;;;20.98;12.25;;;;;;;11.86;72.38;101734.13;5132306;27;20043;-51
2020/12/19 07:57:30;;;;;;;22.77;15.73;;;;;;;11.85;71.96;101734.34;5112033;27;20032;-48
2020/12/19 07:59:57;;;;;;;28.30;25.38;;;;;;;11.73;72.26;101743.16;5121503;27;20035;-48
2020/12/19 08:02:23;;;;;;;21.67;17.05;;;;;;;11.86;72.06;101736.00;5131011;27;20043;-48
2020/12/19 08:04:51;;;;;;;19.80;17.48;;;;;;;11.99;71.75;101738.59;5131468;27;20039;-47
2020/12/19 08:07:18;;;;;;;42.38;30.50;;;;;;;11.95;71.98;101741.94;5101526;27;20070;-48
2020/12/19 08:09:43;;;;;;;46.20;30.63;;;;;;;11.88;72.11;101744.66;5107945;27;20036;-45
2020/12/19 08:12:10;;;;;;;50.50;31.45;;;;;;;11.86;72.15;101741.38;5111991;27;20032;-46
2020/12/19 08:14:37;;;;;;;45.63;30.40;;;;;;;11.78;72.50;101738.97;5110692;27;20050;-45
2020/12/19 08:17:09;;;;;;;52.75;30.75;;;;;;;11.75;72.29;101747.50;5118455;27;20061;-47
2020/12/19 08:19:40;;;;;;;47.25;25.52;;;;;;;11.90;72.10;101734.50;5120866;27;20064;-47
2020/12/19 08:22:06;;;;;;;31.02;24.83;;;;;;;11.99;71.45;101741.28;5123474;27;20035;-49
2020/12/19 08:24:32;;;;;;;26.20;23.45;;;;;;;11.99;71.57;101729.69;5108837;27;20099;-47
2020/12/19 08:27:26;;;;;;;37.00;30.73;;;;;;;11.88;71.95;101742.78;5115798;27;20031;-47
2020/12/19 08:30:00;;;;;;;32.75;29.40;;;;;;;11.88;71.71;101748.16;5119784;27;20392;-44
2020/12/19 08:32:27;;;;;;;44.97;29.48;;;;;;;11.79;72.23;101756.75;5124569;27;20092;-43
2020/12/19 08:34:53;;;;;;;48.13;41.97;;;;;;;11.92;71.78;101748.56;5126135;27;20095;-47
2020/12/19 08:37:21;;;;;;;41.10;34.47;;;;;;;11.98;71.66;101749.56;5127043;27;20469;-46
2020/12/19 08:40:06;;;;;;;42.20;29.88;;;;;;;11.98;71.96;101755.75;5126015;27;20384;-47
2020/12/19 08:42:33;;;;;;;44.13;34.03;;;;;;;11.92;72.12;101762.00;5113937;27;20035;-47
2020/12/19 08:45:11;;;;;;;32.97;29.33;;;;;;;12.04;71.91;101768.31;5127752;27;20096;-45
2020/12/19 08:47:39;;;;;;;47.05;38.55;;;;;;;12.14;71.73;101764.25;5115258;27;20047;-45
2020/12/19 08:50:05;;;;;;;40.50;33.60;;;;;;;12.12;72.11;101763.69;5117470;27;20118;-47
2020/12/19 08:52:30;;;;;;;36.63;32.92;;;;;;;12.07;72.38;101759.78;5107830;28;20110;-48
2020/12/19 08:54:59;;;;;;;49.88;35.70;;;;;;;12.15;72.30;101760.50;5107231;28;20043;-46
2020/12/19 08:57:33;;;;;;;36.90;33.17;;;;;;;12.24;72.09;101767.25;5119157;27;20051;-46
2020/12/19 09:00:15;;;;;;;48.47;34.45;;;;;;;12.33;71.63;101767.78;5111475;27;20068;-46
2020/12/19 09:02:42;;;;;;;58.40;41.17;;;;;;;12.28;72.62;101763.06;5113236;28;20377;-46
2020/12/19 09:05:08;;;;;;;55.40;49.95;;;;;;;12.10;73.45;101771.97;5110581;28;20040;-46
2020/12/19 09:07:34;;;;;;;51.72;46.33;;;;;;;12.10;73.75;101770.09;5108542;28;20454;-45
2020/12/19 09:10:00;;;;;;;51.30;43.53;;;;;;;12.20;73.59;101768.72;5110680;28;20027;-51
2020/12/19 09:12:25;;;;;;;57.13;42.28;;;;;;;12.36;73.16;101768.13;5127373;28;20035;-49
2020/12/19 09:14:51;;;;;;;52.83;41.30;;;;;;;12.47;72.60;101775.44;5115555;27;20488;-45
2020/12/19 09:17:30;;;;;;;50.80;42.15;;;;;;;12.61;72.73;101775.28;5115291;28;20056;-48
2020/12/19 09:20:05;;;;;;;56.70;39.83;;;;;;;12.70;72.59;101765.81;5107971;28;20054;-49
2020/12/19 09:22:33;;;;;;;68.90;45.92;;;;;;;12.78;72.25;101770.88;5107090;28;20466;-46
2020/12/19 09:24:59;;;;;;;53.35;44.15;;;;;;;12.66;73.46;101781.59;5120386;28;20438;-47
2020/12/19 09:27:25;;;;;;;82.47;46.85;;;;;;;12.80;72.88;101779.56;5109472;28;20068;-46
2020/12/19 09:29:51;;;;;;;70.97;45.75;;;;;;;12.81;73.72;101783.88;5123448;28;20043;-47
2020/12/19 09:32:16;;;;;;;56.05;44.78;;;;;;;12.92;73.36;101781.44;5117928;27;20047;-48
2020/12/19 09:34:42;;;;;;;55.25;42.55;;;;;;;13.01;73.30;101785.47;5113966;28;20027;-45
2020/12/19 09:37:08;;;;;;;54.22;42.58;;;;;;;13.13;73.49;101780.94;5124616;27;20046;-45
2020/12/19 09:39:33;;;;;;;57.90;46.03;;;;;;;13.24;72.84;101780.13;5131820;27;20126;-48
2020/12/19 09:41:59;;;;;;;63.33;47.05;;;;;;;13.33;73.27;101779.81;5122708;27;20032;-45
2020/12/19 09:44:24;;;;;;;69.07;50.00;;;;;;;13.40;74.05;101778.66;5116016;27;20046;-46
2020/12/19 09:46:50;;;;;;;49.50;40.78;;;;;;;13.54;73.66;101773.88;5113411;27;20059;-48
2020/12/19 09:49:15;;;;;;;59.92;45.17;;;;;;;13.45;73.45;101786.06;5113940;27;20028;-49
2020/12/19 09:51:41;;;;;;;67.10;47.15;;;;;;;13.51;73.34;101768.94;5116198;27;20043;-45
2020/12/19 09:54:06;;;;;;;67.90;51.63;;;;;;;13.67;73.67;101772.00;5116161;27;20131;-46
2020/12/19 09:56:38;;;;;;;64.28;48.10;;;;;;;13.86;73.30;101773.50;5118198;27;20042;-46
2020/12/19 09:59:05;;;;;;;65.00;54.65;;;;;;;13.99;72.48;101777.84;5116145;27;20045;-46
2020/12/19 10:01:30;;;;;;;72.22;58.35;;;;;;;14.06;72.19;101785.78;5118192;27;20027;-51
2020/12/19 10:03:56;;;;;;;65.22;54.40;;;;;;;14.04;72.89;101785.19;5116401;27;20093;-50
2020/12/19 10:06:21;;;;;;;64.68;54.15;;;;;;;14.10;72.57;101785.06;5114914;27;20036;-47
2020/12/19 10:08:46;;;;;;;63.45;53.80;;;;;;;14.12;72.40;101782.97;5113144;27;20066;-48
2020/12/19 10:11:12;;;;;;;53.55;47.85;;;;;;;14.12;72.47;101782.97;5112309;27;20063;-46
2020/12/19 10:13:37;;;;;;;58.45;50.65;;;;;;;14.17;72.60;101782.25;5117079;27;20031;-47
2020/12/19 10:16:06;;;;;;;46.80;40.45;;;;;;;14.19;73.38;101772.03;5115579;27;21541;-49
2020/12/19 10:18:31;;;;;;;42.97;35.30;;;;;;;14.32;73.54;101768.25;5121040;27;20039;-50
2020/12/19 10:20:57;;;;;;;31.42;28.05;;;;;;;14.47;73.04;101767.75;5118947;27;20446;-44
2020/12/19 10:23:22;;;;;;;35.13;28.77;;;;;;;14.66;73.46;101763.00;5124316;27;20046;-48
2020/12/19 10:25:48;;;;;;;40.75;26.52;;;;;;;15.03;72.63;101759.88;5130811;27;20124;-52
2020/12/19 10:28:13;;;;;;;30.50;27.25;;;;;;;16.55;67.86;101747.88;5105704;27;20191;-51
2020/12/19 10:30:39;;;;;;;35.08;29.95;;;;;;;17.72;63.83;101750.78;5099950;27;20034;-51
2020/12/19 10:33:04;;;;;;;32.55;29.08;;;;;;;17.05;65.43;101748.66;5103554;27;20421;-46
2020/12/19 10:35:30;;;;;;;37.08;29.70;;;;;;;17.19;65.76;101745.25;5115353;27;20046;-45
2020/12/19 10:37:55;;;;;;;38.90;29.58;;;;;;;17.66;63.73;101735.53;5129883;27;20039;-50
2020/12/19 10:40:21;;;;;;;43.22;28.15;;;;;;;17.41;64.84;101732.66;5120663;27;20074;-47
2020/12/19 10:42:46;;;;;;;28.27;25.38;;;;;;;17.65;65.42;101727.66;5129140;27;20189;-50
2020/12/19 10:45:12;;;;;;;55.00;33.15;;;;;;;17.52;65.84;101724.34;5122343;27;20549;-47
2020/12/19 10:47:37;;;;;;;46.88;28.90;;;;;;;17.33;66.01;101723.94;5129055;27;20038;-47
2020/12/19 10:50:03;;;;;;;31.90;21.63;;;;;;;17.38;65.67;101715.03;5126769;27;20038;-47
2020/12/19 10:52:29;;;;;;;23.30;13.10;;;;;;;17.06;66.24;101712.34;5128441;27;20122;-46
2020/12/19 10:54:54;;;;;;;18.63;8.05;;;;;;;16.91;66.69;101713.88;5128136;27;20095;-47
2020/12/19 10:57:20;;;;;;;44.08;37.80;;;;;;;17.03;65.77;101710.19;5127421;27;20078;-48
2020/12/19 10:59:45;;;;;;;19.45;8.20;;;;;;;16.90;65.94;101716.84;5122292;27;20496;-47
2020/12/19 11:02:11;;;;;;;15.75;5.35;;;;;;;16.90;65.34;101708.72;5115071;27;20023;-49
2020/12/19 11:04:36;;;;;;;12.32;5.68;;;;;;;16.81;65.93;101702.91;5115681;27;20492;-47
2020/12/19 11:07:02;;;;;;;10.57;6.13;;;;;;;16.80;65.99;101690.47;5113104;27;20046;-47
2020/12/19 11:09:28;;;;;;;17.40;12.85;;;;;;;16.91;65.77;101684.09;5115247;27;20042;-47
2020/12/19 11:11:54;;;;;;;16.88;10.50;;;;;;;16.96;65.64;101692.25;5115757;27;20484;-45
2020/12/19 11:14:21;;;;;;;23.58;9.88;;;;;;;17.00;65.98;101682.56;5113167;27;20104;-46